• Join FlightAware (Why Join?)
  • Login
  • US Flag 
07:27PM EDT


 

Airport Tracker/Info


-or-


 

Live Flight TrackerFlight Track Log ✈ N622QS ✈ 03-Aug-2014 ✈ KMEM - KSSI

Flight Track Log - Related Links

Times and Time Zones

All times are in EDT time to prevent confusion due to time zone crossing. See the N622QS flight status page for this flight to view local times or setup timezone preferences in your user account.

Time Position Orientation Groundspeed Altitude Reporting Facility
EDT Latitude Longitude Course Direction KTS MPH feet Rate Location/Type
11:16AM 35.0667 -89.9833 301° West 190 219 1,100  Level KMEM
11:17AM 35.0833 -90.0167 301° West 198 228 2,400 1,320 Climbing KMEM
11:18AM 35.1167 -90.0000 22° Northeast 203 234 3,100 360 Climbing KMEM
11:19AM 35.1500 -89.9333 59° Northeast 210 242 3,100 1,260 Level KMEM
11:20AM 35.1167 -89.8667 121° Southeast 253 291 5,700 2,760 Climbing KMEM
11:21AM 35.0981 -89.7869 106° East 258 297 8,600 2,820 Climbing Memphis Center
11:22AM 35.0706 -89.6956 110° East 278 320 11,400 2,460 Climbing Memphis Center
11:23AM 35.0408 -89.5950 110° East 302 348 13,800 2,460 Climbing Memphis Center
11:24AM 35.0097 -89.4928 110° East 314 361 16,500 2,280 Climbing Memphis Center
11:25AM 34.9783 -89.3908 111° Southeast 314 361 18,600 1,920 Climbing Memphis Center
11:26AM 34.9453 -89.2825 110° East 332 382 20,500 2,040 Climbing Memphis Center
11:27AM 34.9044 -89.1478 110° East 348 400 22,900 2,040 Climbing Memphis Center
11:28AM 34.8797 -89.0286 104° East 358 412 24,800 1,860 Climbing Memphis Center
11:29AM 34.8325 -88.9181 117° Southeast 361 415 26,800 1,740 Climbing Memphis Center
11:30AM 34.7831 -88.8067 118° Southeast 369 425 28,500 1,500 Climbing Memphis Center
11:31AM 34.7325 -88.6911 118° Southeast 382 440 30,000 1,200 Climbing Memphis Center
11:32AM 34.6794 -88.5753 119° Southeast 386 444 31,000 480 Climbing Memphis Center
11:33AM 34.6186 -88.4350 118° Southeast 420 483 31,000  Level Memphis Center
11:34AM 34.5603 -88.3047 119° Southeast 436 502 31,100 840 Climbing Memphis Center
11:35AM 34.5039 -88.1792 119° Southeast 430 495 32,800 900 Climbing Memphis Center
11:36AM 34.4372 -88.0294 118° Southeast 420 483 33,000 900 Climbing Memphis Center
11:37AM 34.3806 -87.9056 119° Southeast 426 490 34,700 1,680 Climbing Memphis Center
11:38AM 34.3322 -87.7997 119° Southeast 402 463 36,500 1,560 Climbing Memphis Center
11:39AM 34.2697 -87.6661 119° Southeast 387 445 38,000 1,200 Climbing Memphis Center
11:41AM 34.2172 -87.5506 119° Southeast 387 445 39,000 960 Climbing Memphis Center
11:42AM 34.1611 -87.4367 121° Southeast 392 451 40,000 960 Climbing Memphis Center
11:43AM 34.0919 -87.3350 129° Southeast 392 451 41,000 480 Climbing Memphis Center
11:44AM 34.0361 -87.2150 119° Southeast 399 459 41,000  Level Memphis Center
11:45AM 33.9772 -87.0939 120° Southeast 415 478 41,000  Level Memphis Center
11:46AM 33.9181 -86.9714 120° Southeast 420 483 41,000  Level Memphis Center
11:46AM 33.8661 -86.8658 121° Southeast 420 483 41,000  Level Atlanta Center
11:47AM 33.8064 -86.7414 120° Southeast 425 489 41,000  Level Atlanta Center
11:48AM 33.7464 -86.6169 120° Southeast 430 495 41,000  Level Atlanta Center
11:49AM 33.6883 -86.4931 119° Southeast 430 495 41,000  Level Atlanta Center
11:50AM 33.6261 -86.3689 121° Southeast 430 495 41,000  Level Atlanta Center
11:51AM 33.5736 -86.2678 122° Southeast 437 503 41,000  Level Atlanta Center
11:52AM 33.5114 -86.1342 119° Southeast 432 497 41,000  Level Atlanta Center
11:53AM 33.4489 -86.0031 120° Southeast 438 504 41,000  Level Atlanta Center
11:54AM 33.3900 -85.8850 121° Southeast 433 498 41,000  Level Atlanta Center
11:55AM 33.3231 -85.7617 123° Southeast 433 498 41,000  Level Atlanta Center
11:56AM 33.2642 -85.6314 118° Southeast 433 498 41,000  Level Atlanta Center
11:57AM 33.2031 -85.5111 121° Southeast 438 504 41,000  Level Atlanta Center
11:58AM 33.1317 -85.3783 123° Southeast 431 496 41,000  Level Atlanta Center
11:59AM 33.0703 -85.2533 120° Southeast 431 496 41,000 -120 Level Atlanta Center
12:00PM 33.0067 -85.1286 121° Southeast 448 516 40,800 -960 Descending Atlanta Center
12:01PM 32.9450 -85.0067 121° Southeast 436 502 39,100 -1,680 Descending Atlanta Center
12:02PM 32.8856 -84.8872 121° Southeast 429 494 37,500 -1,500 Descending Atlanta Center
12:03PM 32.8256 -84.7731 102° East 424 488 36,100 -780 Descending Atlanta Center
12:04PM 32.8634 -84.7600 102° East  Level FlightAware Approximate
12:04PM 32.7700 -84.6639 121° Southeast 424 488 36,000  Level Atlanta Center
12:05PM 32.7078 -84.5400 121° Southeast 431 496 36,000 -120 Level Atlanta Center
12:06PM 32.6436 -84.4186 122° Southeast 431 496 35,800 -600 Descending Atlanta Center
12:07PM 32.5833 -84.3003 121° Southeast 431 496 34,800 -1,440 Descending Atlanta Center
12:08PM 32.5208 -84.1817 122° Southeast 431 496 33,000 -1,980 Descending Atlanta Center
12:09PM 32.4606 -84.0611 121° Southeast 431 496 30,900 -2,100 Descending Atlanta Center
12:10PM 32.3978 -83.9431 122° Southeast 431 496 28,900 -2,040 Descending Atlanta Center
12:11PM 32.3350 -83.8200 121° Southeast 431 496 26,900 -2,040 Descending Atlanta Center
12:12PM 32.2681 -83.6975 123° Southeast 436 502 24,900 -1,080 Descending Atlanta Center
12:14PM 32.1569 -83.4792 121° Southeast 438 504 24,000 -480 Descending Jacksonville Center
12:15PM 32.0947 -83.3658 123° Southeast 427 491 23,600 -1,140 Descending Jacksonville Center
12:16PM 32.0344 -83.2503 122° Southeast 417 480 21,800 -1,680 Descending Jacksonville Center
12:17PM 31.9742 -83.1425 123° Southeast 410 472 20,300 -1,560 Descending Jacksonville Center
12:18PM 31.9158 -83.0297 121° Southeast 405 466 18,800 -1,320 Descending Jacksonville Center
12:19PM 31.8575 -82.9219 122° Southeast 400 460 17,700 -1,200 Descending Jacksonville Center
12:20PM 31.7992 -82.8144 123° Southeast 393 452 16,400 -1,260 Descending Jacksonville Center
12:21PM 31.7447 -82.7094 121° Southeast 393 452 15,200 -1,200 Descending Jacksonville Center
12:22PM 31.6817 -82.5947 123° Southeast 393 452 14,000 -1,200 Descending Jacksonville Center
12:23PM 31.6253 -82.4950 124° Southeast 381 438 12,800 -960 Descending Jacksonville Center
12:24PM 31.5725 -82.3928 121° Southeast 374 430 12,100 -1,320 Descending Jacksonville Center
12:25PM 31.5264 -82.3150 125° Southeast 348 400 10,200 -1,740 Descending Jacksonville Center
12:26PM 31.4778 -82.2228 122° Southeast 300 345 8,700 -1,500 Descending Jacksonville Center
12:27PM 31.4419 -82.1547 122° Southeast 279 321 7,300 -900 Descending Jacksonville Center
12:28PM 31.3956 -82.0700 123° Southeast 279 321 7,000 -840 Descending Jacksonville Center
12:29PM 31.3575 -82.0022 123° Southeast 268 308 5,700 -1,020 Descending Jacksonville Center
12:30PM 31.3172 -81.9294 123° Southeast 262 302 5,000 -420 Descending Jacksonville Center
12:31PM 31.2792 -81.8619 123° Southeast 262 302 4,900 -780 Descending Jacksonville Center
12:32PM 31.2411 -81.7894 122° Southeast 262 302 3,500 -1,500 Descending Jacksonville Center
12:33PM 31.2006 -81.7169 123° Southeast 257 296 1,900 -1,620 Descending Jacksonville Center